N65DM KTTA-KTOP
Flight info
| Callsign | N65DM |
|---|---|
| Flight time | N/A |
| Altitude | 43000 |
| Route | LIB SHPRD TIELR FAREV WLSUN SLVER TYGER |
| Aircraft | HDJT/L-SABDGRWY/H |
Departure
| Time | 2026-05-07 19:06 |
|---|---|
| Airport | Raleigh Executive Jetport (KTTA) |
Arrival
| Time | N/A |
|---|---|
| Airport | Philip Billard Municipal Airport (KTOP) |
| Time | Latitude | Longitude | Altitude | Speed | Heading |
|---|---|---|---|---|---|
| 2026-05-07 18:58 | 35.57635 | -79.10669 | 244 ft | 0 kts | 303° |
| 2026-05-07 18:59 | 35.57641 | -79.10674 | 244 ft | 1 kts | 339° |
| 2026-05-07 18:59 | 35.57658 | -79.10676 | 244 ft | 4 kts | 11° |
| 2026-05-07 19:00 | 35.57687 | -79.10654 | 243 ft | 6 kts | 18° |
| 2026-05-07 19:00 | 35.57736 | -79.10624 | 243 ft | 10 kts | 28° |
| 2026-05-07 19:00 | 35.57800 | -79.10590 | 242 ft | 10 kts | 37° |
| 2026-05-07 19:00 | 35.57805 | -79.10516 | 242 ft | 9 kts | 115° |
| 2026-05-07 19:01 | 35.57803 | -79.10510 | 242 ft | 0 kts | 115° |
| 2026-05-07 19:01 | 35.57803 | -79.10499 | 242 ft | 4 kts | 71° |
| 2026-05-07 19:01 | 35.57848 | -79.10466 | 241 ft | 12 kts | 21° |
| 2026-05-07 19:02 | 35.57942 | -79.10422 | 240 ft | 17 kts | 21° |
| 2026-05-07 19:02 | 35.58064 | -79.10364 | 238 ft | 19 kts | 21° |
| 2026-05-07 19:02 | 35.58185 | -79.10306 | 237 ft | 18 kts | 20° |
| 2026-05-07 19:02 | 35.58303 | -79.10252 | 235 ft | 18 kts | 20° |
| 2026-05-07 19:03 | 35.58422 | -79.10197 | 234 ft | 18 kts | 20° |
| 2026-05-07 19:03 | 35.58537 | -79.10144 | 233 ft | 17 kts | 20° |
| 2026-05-07 19:03 | 35.58650 | -79.10091 | 231 ft | 17 kts | 20° |
| 2026-05-07 19:03 | 35.58761 | -79.10038 | 230 ft | 17 kts | 21° |
| 2026-05-07 19:04 | 35.58870 | -79.09987 | 228 ft | 17 kts | 21° |
| 2026-05-07 19:04 | 35.58980 | -79.09935 | 227 ft | 17 kts | 20° |
| 2026-05-07 19:04 | 35.59078 | -79.09890 | 226 ft | 11 kts | 20° |
| 2026-05-07 19:04 | 35.59104 | -79.09850 | 225 ft | 5 kts | 101° |
| 2026-05-07 19:05 | 35.59090 | -79.09807 | 225 ft | 6 kts | 111° |
| 2026-05-07 19:05 | 35.59071 | -79.09759 | 224 ft | 5 kts | 141° |
| 2026-05-07 19:05 | 35.59051 | -79.09756 | 224 ft | 2 kts | 196° |
| 2026-05-07 19:05 | 35.58987 | -79.09787 | 225 ft | 31 kts | 201° |
| 2026-05-07 19:06 | 35.58504 | -79.10011 | 232 ft | 116 kts | 200° |
| 2026-05-07 19:06 | 35.56840 | -79.10878 | 1184 ft | 136 kts | 206° |
| 2026-05-07 19:06 | 35.55937 | -79.11415 | 1674 ft | 152 kts | 207° |
| 2026-05-07 19:07 | 35.54892 | -79.12058 | 1816 ft | 191 kts | 206° |
| 2026-05-07 19:07 | 35.53589 | -79.12815 | 2094 ft | 221 kts | 206° |
| 2026-05-07 19:07 | 35.52191 | -79.13623 | 2812 ft | 220 kts | 206° |
| 2026-05-07 19:07 | 35.50951 | -79.14771 | 3412 ft | 227 kts | 237° |
| 2026-05-07 19:08 | 35.50493 | -79.16523 | 4361 ft | 212 kts | 272° |
| 2026-05-07 19:08 | 35.50958 | -79.18199 | 5203 ft | 212 kts | 306° |
| 2026-05-07 19:08 | 35.52093 | -79.19391 | 5974 ft | 219 kts | 321° |
| 2026-05-07 19:08 | 35.53297 | -79.20537 | 6729 ft | 217 kts | 312° |
| 2026-05-07 19:09 | 35.54297 | -79.21895 | 7539 ft | 213 kts | 304° |
| 2026-05-07 19:09 | 35.55219 | -79.23312 | 8373 ft | 211 kts | 303° |
| 2026-05-07 19:09 | 35.56162 | -79.24702 | 9215 ft | 211 kts | 303° |
| 2026-05-07 19:09 | 35.57108 | -79.26068 | 10044 ft | 209 kts | 303° |
| 2026-05-07 19:10 | 35.58051 | -79.27441 | 10714 ft | 213 kts | 302° |
| 2026-05-07 19:10 | 35.59016 | -79.28850 | 11374 ft | 218 kts | 301° |
| 2026-05-07 19:10 | 35.60000 | -79.30284 | 12051 ft | 221 kts | 301° |
| 2026-05-07 19:10 | 35.61000 | -79.31740 | 12743 ft | 225 kts | 301° |
| 2026-05-07 19:11 | 35.62017 | -79.33223 | 13448 ft | 229 kts | 300° |
| 2026-05-07 19:11 | 35.63049 | -79.34729 | 14117 ft | 231 kts | 300° |
| 2026-05-07 19:11 | 35.64084 | -79.36235 | 14860 ft | 229 kts | 300° |
| 2026-05-07 19:11 | 35.65110 | -79.37730 | 15531 ft | 229 kts | 299° |
| 2026-05-07 19:12 | 35.66132 | -79.39225 | 16167 ft | 228 kts | 299° |
| 2026-05-07 19:12 | 35.67154 | -79.40719 | 16831 ft | 227 kts | 298° |
| 2026-05-07 19:12 | 35.68169 | -79.42203 | 17487 ft | 226 kts | 298° |
| 2026-05-07 19:12 | 35.69177 | -79.43675 | 18289 ft | 221 kts | 299° |
| 2026-05-07 19:13 | 35.70155 | -79.45105 | 18830 ft | 222 kts | 298° |
| 2026-05-07 19:13 | 35.71148 | -79.46564 | 19366 ft | 223 kts | 298° |
| 2026-05-07 19:13 | 35.72149 | -79.48030 | 19903 ft | 224 kts | 297° |
| 2026-05-07 19:13 | 35.73160 | -79.49511 | 20444 ft | 226 kts | 297° |
| 2026-05-07 19:14 | 35.74173 | -79.50997 | 20992 ft | 227 kts | 296° |
| 2026-05-07 19:14 | 35.75195 | -79.52495 | 21544 ft | 229 kts | 296° |
| 2026-05-07 19:14 | 35.76220 | -79.54000 | 22105 ft | 230 kts | 295° |
| 2026-05-07 19:14 | 35.77232 | -79.55530 | 22684 ft | 228 kts | 292° |
| 2026-05-07 19:15 | 35.78082 | -79.57147 | 23254 ft | 223 kts | 287° |
| 2026-05-07 19:15 | 35.78769 | -79.58819 | 23767 ft | 219 kts | 282° |
| 2026-05-07 19:15 | 35.79305 | -79.60561 | 24262 ft | 216 kts | 278° |
| 2026-05-07 19:15 | 35.79685 | -79.62337 | 24766 ft | 214 kts | 274° |
| 2026-05-07 19:16 | 35.79912 | -79.64138 | 25269 ft | 212 kts | 270° |
| 2026-05-07 19:16 | 35.79986 | -79.65947 | 25754 ft | 211 kts | 266° |
| 2026-05-07 19:16 | 35.79911 | -79.67750 | 26196 ft | 211 kts | 262° |
| 2026-05-07 19:16 | 35.79680 | -79.69565 | 26651 ft | 212 kts | 258° |
| 2026-05-07 19:17 | 35.79354 | -79.71346 | 27073 ft | 214 kts | 258° |
| 2026-05-07 19:17 | 35.79037 | -79.73144 | 27514 ft | 215 kts | 259° |
| 2026-05-07 19:17 | 35.78716 | -79.74952 | 27936 ft | 216 kts | 259° |
| 2026-05-07 19:17 | 35.78390 | -79.76768 | 28381 ft | 218 kts | 259° |
| 2026-05-07 19:18 | 35.78062 | -79.78593 | 28807 ft | 219 kts | 259° |
| 2026-05-07 19:18 | 35.77732 | -79.80420 | 29267 ft | 218 kts | 259° |
| 2026-05-07 19:18 | 35.77405 | -79.82245 | 29714 ft | 218 kts | 259° |
| 2026-05-07 19:18 | 35.77075 | -79.84080 | 30081 ft | 220 kts | 259° |
| 2026-05-07 19:19 | 35.76741 | -79.85929 | 30390 ft | 221 kts | 259° |
| 2026-05-07 19:19 | 35.76409 | -79.87766 | 30779 ft | 219 kts | 259° |
| 2026-05-07 19:19 | 35.76079 | -79.89592 | 31150 ft | 218 kts | 258° |
| 2026-05-07 19:19 | 35.75751 | -79.91411 | 31525 ft | 217 kts | 258° |
| 2026-05-07 19:20 | 35.75424 | -79.93219 | 31903 ft | 216 kts | 258° |
| 2026-05-07 19:20 | 35.75099 | -79.95018 | 32263 ft | 214 kts | 258° |
| 2026-05-07 19:20 | 35.74775 | -79.96802 | 32620 ft | 213 kts | 257° |
| 2026-05-07 19:20 | 35.74452 | -79.98578 | 32965 ft | 212 kts | 257° |
| 2026-05-07 19:21 | 35.74131 | -80.00349 | 33313 ft | 211 kts | 257° |
| 2026-05-07 19:21 | 35.73811 | -80.02106 | 33648 ft | 210 kts | 257° |
| 2026-05-07 19:21 | 35.73493 | -80.03856 | 33967 ft | 209 kts | 257° |
| 2026-05-07 19:21 | 35.73176 | -80.05600 | 34247 ft | 208 kts | 257° |
| 2026-05-07 19:22 | 35.72859 | -80.07336 | 34517 ft | 208 kts | 257° |
| 2026-05-07 19:22 | 35.72543 | -80.09069 | 34802 ft | 207 kts | 257° |
| 2026-05-07 19:22 | 35.72229 | -80.10792 | 35073 ft | 206 kts | 257° |
| 2026-05-07 19:22 | 35.71915 | -80.12509 | 35367 ft | 205 kts | 257° |
| 2026-05-07 19:23 | 35.71603 | -80.14216 | 35654 ft | 204 kts | 257° |
| 2026-05-07 19:23 | 35.71291 | -80.15923 | 35924 ft | 204 kts | 257° |
| 2026-05-07 19:23 | 35.70980 | -80.17619 | 36257 ft | 202 kts | 257° |
| 2026-05-07 19:23 | 35.70672 | -80.19297 | 36560 ft | 200 kts | 257° |
| 2026-05-07 19:24 | 35.70366 | -80.20968 | 36808 ft | 200 kts | 257° |
| 2026-05-07 19:24 | 35.70060 | -80.22638 | 37055 ft | 199 kts | 257° |
| 2026-05-07 19:24 | 35.69756 | -80.24296 | 37291 ft | 198 kts | 257° |
| 2026-05-07 19:24 | 35.69455 | -80.25931 | 37527 ft | 198 kts | 257° |
| 2026-05-07 19:25 | 35.69151 | -80.27579 | 37759 ft | 197 kts | 257° |
| 2026-05-07 19:25 | 35.68849 | -80.29219 | 37992 ft | 197 kts | 257° |
| 2026-05-07 19:25 | 35.68546 | -80.30861 | 38223 ft | 196 kts | 257° |
| 2026-05-07 19:25 | 35.68245 | -80.32495 | 38452 ft | 195 kts | 257° |
| 2026-05-07 19:26 | 35.67944 | -80.34122 | 38649 ft | 195 kts | 257° |
| 2026-05-07 19:26 | 35.67644 | -80.35746 | 38817 ft | 195 kts | 257° |
| 2026-05-07 19:26 | 35.67343 | -80.37371 | 38977 ft | 195 kts | 257° |
| 2026-05-07 19:26 | 35.67043 | -80.38999 | 39105 ft | 195 kts | 258° |
| 2026-05-07 19:27 | 35.66811 | -80.40642 | 39263 ft | 195 kts | 261° |
| 2026-05-07 19:27 | 35.66674 | -80.42305 | 39425 ft | 196 kts | 263° |
| 2026-05-07 19:27 | 35.66633 | -80.43980 | 39586 ft | 196 kts | 265° |
| 2026-05-07 19:27 | 35.66688 | -80.45662 | 39740 ft | 198 kts | 268° |
| 2026-05-07 19:28 | 35.66841 | -80.47349 | 39902 ft | 199 kts | 271° |
| 2026-05-07 19:28 | 35.67094 | -80.49032 | 40051 ft | 202 kts | 273° |
| 2026-05-07 19:28 | 35.67451 | -80.50711 | 40206 ft | 204 kts | 276° |
| 2026-05-07 19:28 | 35.67914 | -80.52378 | 40361 ft | 207 kts | 279° |
| 2026-05-07 19:29 | 35.68486 | -80.54022 | 40524 ft | 210 kts | 282° |
| 2026-05-07 19:29 | 35.69164 | -80.55626 | 40683 ft | 214 kts | 284° |
| 2026-05-07 19:29 | 35.69917 | -80.57213 | 40833 ft | 214 kts | 284° |
| 2026-05-07 19:29 | 35.70656 | -80.58796 | 40986 ft | 213 kts | 284° |
| 2026-05-07 19:30 | 35.71396 | -80.60380 | 41129 ft | 213 kts | 285° |
| 2026-05-07 19:30 | 35.72136 | -80.61960 | 41275 ft | 213 kts | 285° |
| 2026-05-07 19:30 | 35.72876 | -80.63541 | 41429 ft | 213 kts | 285° |
| 2026-05-07 19:30 | 35.73616 | -80.65122 | 41572 ft | 212 kts | 285° |
| 2026-05-07 19:31 | 35.74354 | -80.66699 | 41701 ft | 213 kts | 285° |
| 2026-05-07 19:31 | 35.74843 | -80.67746 | 41784 ft | 213 kts | 285° |
| 2026-05-07 19:31 | 35.75818 | -80.69832 | 41956 ft | 212 kts | 285° |
| 2026-05-07 19:31 | 35.76554 | -80.71407 | 42075 ft | 212 kts | 285° |
| 2026-05-07 19:32 | 35.77290 | -80.72984 | 42199 ft | 212 kts | 285° |
| 2026-05-07 19:32 | 35.77785 | -80.74045 | 42277 ft | 212 kts | 285° |
| 2026-05-07 19:32 | 35.78518 | -80.75617 | 42401 ft | 211 kts | 285° |
| 2026-05-07 19:32 | 35.79251 | -80.77188 | 42516 ft | 211 kts | 285° |
| 2026-05-07 19:33 | 35.79983 | -80.78759 | 42629 ft | 211 kts | 285° |
| 2026-05-07 19:33 | 35.80705 | -80.80310 | 42731 ft | 211 kts | 285° |
| 2026-05-07 19:33 | 35.81434 | -80.81875 | 42851 ft | 211 kts | 285° |
| 2026-05-07 19:33 | 35.82167 | -80.83454 | 42855 ft | 214 kts | 285° |
| 2026-05-07 19:34 | 35.82912 | -80.85059 | 42857 ft | 217 kts | 285° |
| 2026-05-07 19:34 | 35.83668 | -80.86686 | 42855 ft | 220 kts | 286° |
| 2026-05-07 19:34 | 35.84434 | -80.88332 | 42857 ft | 223 kts | 286° |
| 2026-05-07 19:34 | 35.85210 | -80.90002 | 42854 ft | 226 kts | 286° |
| 2026-05-07 19:35 | 35.85995 | -80.91692 | 42841 ft | 229 kts | 286° |
| 2026-05-07 19:35 | 35.86789 | -80.93406 | 42839 ft | 231 kts | 286° |
| 2026-05-07 19:35 | 35.87592 | -80.95134 | 42839 ft | 234 kts | 286° |
| 2026-05-07 19:35 | 35.88405 | -80.96887 | 42839 ft | 236 kts | 286° |
| 2026-05-07 19:36 | 35.89225 | -80.98657 | 42851 ft | 239 kts | 286° |
| 2026-05-07 19:36 | 35.90053 | -81.00443 | 42850 ft | 241 kts | 287° |
| 2026-05-07 19:36 | 35.90888 | -81.02249 | 42861 ft | 243 kts | 287° |
| 2026-05-07 19:36 | 35.91729 | -81.04068 | 42886 ft | 245 kts | 286° |
| 2026-05-07 19:37 | 35.92579 | -81.05903 | 42869 ft | 247 kts | 286° |
| 2026-05-07 19:37 | 35.93436 | -81.07761 | 42869 ft | 249 kts | 286° |
| 2026-05-07 19:37 | 35.94296 | -81.09621 | 42870 ft | 251 kts | 286° |
| 2026-05-07 19:37 | 35.95162 | -81.11498 | 42873 ft | 252 kts | 286° |
| 2026-05-07 19:38 | 35.96034 | -81.13386 | 42875 ft | 254 kts | 287° |
| 2026-05-07 19:38 | 35.96908 | -81.15282 | 42878 ft | 255 kts | 286° |
| 2026-05-07 19:38 | 35.97786 | -81.17190 | 42879 ft | 256 kts | 287° |
| 2026-05-07 19:38 | 35.98669 | -81.19104 | 42877 ft | 257 kts | 287° |
| 2026-05-07 19:39 | 35.99555 | -81.21028 | 42871 ft | 258 kts | 286° |
| 2026-05-07 19:39 | 36.00444 | -81.22965 | 42871 ft | 260 kts | 287° |
| 2026-05-07 19:39 | 36.01340 | -81.24910 | 42874 ft | 261 kts | 287° |
| 2026-05-07 19:39 | 36.02239 | -81.26863 | 42875 ft | 262 kts | 286° |
| 2026-05-07 19:40 | 36.03136 | -81.28819 | 42879 ft | 262 kts | 287° |
| 2026-05-07 19:40 | 36.04037 | -81.30785 | 42880 ft | 263 kts | 287° |
| 2026-05-07 19:40 | 36.04943 | -81.32753 | 42875 ft | 264 kts | 287° |
| 2026-05-07 19:40 | 36.05847 | -81.34725 | 42873 ft | 264 kts | 287° |
| 2026-05-07 19:41 | 36.06750 | -81.36699 | 42879 ft | 263 kts | 287° |
| 2026-05-07 19:41 | 36.07648 | -81.38663 | 42881 ft | 263 kts | 287° |
| 2026-05-07 19:41 | 36.08551 | -81.40638 | 42875 ft | 263 kts | 287° |
| 2026-05-07 19:41 | 36.09456 | -81.42612 | 42882 ft | 264 kts | 287° |
| 2026-05-07 19:42 | 36.10349 | -81.44568 | 42876 ft | 263 kts | 287° |